sensor_id;sensor_type;location;lat;lon;timestamp;temperature;humidity
4687;DHT22;2357;47.316;-1.348;2023-08-01T00:01:29;19.30;99.90
4687;DHT22;2357;47.316;-1.348;2023-08-01T00:03:55;19.30;99.90
4687;DHT22;2357;47.316;-1.348;2023-08-01T00:06:21;19.30;99.90
4687;DHT22;2357;47.316;-1.348;2023-08-01T00:08:48;19.30;99.90
4687;DHT22;2357;47.316;-1.348;2023-08-01T00:11:13;19.20;99.90
4687;DHT22;2357;47.316;-1.348;2023-08-01T00:13:40;19.20;99.90
4687;DHT22;2357;47.316;-1.348;2023-08-01T00:16:06;19.20;99.90
4687;DHT22;2357;47.316;-1.348;2023-08-01T00:18:32;19.20;99.90
4687;DHT22;2357;47.316;-1.348;2023-08-01T00:20:57;19.20;99.90
4687;DHT22;2357;47.316;-1.348;2023-08-01T00:23:24;19.20;99.90
4687;DHT22;2357;47.316;-1.348;2023-08-01T00:25:50;19.20;99.90
4687;DHT22;2357;47.316;-1.348;2023-08-01T00:28:21;19.20;99.90
4687;DHT22;2357;47.316;-1.348;2023-08-01T00:30:47;19.20;99.90
4687;DHT22;2357;47.316;-1.348;2023-08-01T00:33:13;19.20;99.90
4687;DHT22;2357;47.316;-1.348;2023-08-01T00:35:40;19.20;99.90
4687;DHT22;2357;47.316;-1.348;2023-08-01T00:38:05;19.10;99.90
4687;DHT22;2357;47.316;-1.348;2023-08-01T00:40:32;19.10;99.90
4687;DHT22;2357;47.316;-1.348;2023-08-01T00:42:57;19.20;99.90
4687;DHT22;2357;47.316;-1.348;2023-08-01T00:45:27;19.10;99.90
4687;DHT22;2357;47.316;-1.348;2023-08-01T00:47:54;19.10;99.90
4687;DHT22;2357;47.316;-1.348;2023-08-01T00:50:20;19.20;99.90
4687;DHT22;2357;47.316;-1.348;2023-08-01T01:03:17;19.00;99.90
4687;DHT22;2357;47.316;-1.348;2023-08-01T01:05:52;19.00;99.90
4687;DHT22;2357;47.316;-1.348;2023-08-01T01:08:20;19.00;99.90
4687;DHT22;2357;47.316;-1.348;2023-08-01T01:10:46;19.10;99.90
4687;DHT22;2357;47.316;-1.348;2023-08-01T01:13:12;19.10;99.90
4687;DHT22;2357;47.316;-1.348;2023-08-01T01:15:37;19.10;99.90
4687;DHT22;2357;47.316;-1.348;2023-08-01T01:18:03;19.00;99.90
4687;DHT22;2357;47.316;-1.348;2023-08-01T01:20:35;19.00;99.90
4687;DHT22;2357;47.316;-1.348;2023-08-01T01:23:03;19.00;99.90
4687;DHT22;2357;47.316;-1.348;2023-08-01T01:25:30;18.90;99.90
4687;DHT22;2357;47.316;-1.348;2023-08-01T01:27:57;19.00;99.90
4687;DHT22;2357;47.316;-1.348;2023-08-01T01:30:23;19.00;99.90
4687;DHT22;2357;47.316;-1.348;2023-08-01T01:32:50;19.00;99.90
4687;DHT22;2357;47.316;-1.348;2023-08-01T01:35:15;19.00;99.90
4687;DHT22;2357;47.316;-1.348;2023-08-01T01:37:41;19.00;99.90
4687;DHT22;2357;47.316;-1.348;2023-08-01T01:40:07;18.90;99.90
4687;DHT22;2357;47.316;-1.348;2023-08-01T01:42:34;19.00;99.90
4687;DHT22;2357;47.316;-1.348;2023-08-01T01:45:00;18.90;99.90
4687;DHT22;2357;47.316;-1.348;2023-08-01T01:47:25;19.00;99.90
4687;DHT22;2357;47.316;-1.348;2023-08-01T01:49:51;18.90;99.90
4687;DHT22;2357;47.316;-1.348;2023-08-01T01:52:16;18.90;99.90
4687;DHT22;2357;47.316;-1.348;2023-08-01T01:54:42;18.80;99.90
4687;DHT22;2357;47.316;-1.348;2023-08-01T01:57:07;18.90;99.90
4687;DHT22;2357;47.316;-1.348;2023-08-01T01:59:33;18.80;99.90
4687;DHT22;2357;47.316;-1.348;2023-08-01T02:01:59;18.80;99.90
4687;DHT22;2357;47.316;-1.348;2023-08-01T02:04:25;18.70;99.90
4687;DHT22;2357;47.316;-1.348;2023-08-01T02:06:50;18.70;99.90
4687;DHT22;2357;47.316;-1.348;2023-08-01T02:09:18;18.70;99.90
4687;DHT22;2357;47.316;-1.348;2023-08-01T02:11:44;18.70;99.90
4687;DHT22;2357;47.316;-1.348;2023-08-01T02:14:10;18.60;99.90
4687;DHT22;2357;47.316;-1.348;2023-08-01T02:16:35;18.60;99.90
4687;DHT22;2357;47.316;-1.348;2023-08-01T02:19:01;18.70;99.90
4687;DHT22;2357;47.316;-1.348;2023-08-01T02:21:26;18.70;99.90
4687;DHT22;2357;47.316;-1.348;2023-08-01T02:23:52;18.60;99.90
4687;DHT22;2357;47.316;-1.348;2023-08-01T02:26:18;18.70;99.90
4687;DHT22;2357;47.316;-1.348;2023-08-01T02:49:10;18.60;99.90
4687;DHT22;2357;47.316;-1.348;2023-08-01T02:51:35;18.60;99.90
4687;DHT22;2357;47.316;-1.348;2023-08-01T02:54:01;18.60;99.90
4687;DHT22;2357;47.316;-1.348;2023-08-01T02:56:27;18.60;99.90
4687;DHT22;2357;47.316;-1.348;2023-08-01T02:58:53;18.60;99.90
4687;DHT22;2357;47.316;-1.348;2023-08-01T03:01:20;18.60;99.90
4687;DHT22;2357;47.316;-1.348;2023-08-01T03:03:46;18.60;99.90
4687;DHT22;2357;47.316;-1.348;2023-08-01T03:06:12;18.60;99.90
4687;DHT22;2357;47.316;-1.348;2023-08-01T03:08:38;18.60;99.90
4687;DHT22;2357;47.316;-1.348;2023-08-01T03:11:04;18.50;99.90
4687;DHT22;2357;47.316;-1.348;2023-08-01T03:13:30;18.40;99.90
4687;DHT22;2357;47.316;-1.348;2023-08-01T03:15:55;18.40;99.90
4687;DHT22;2357;47.316;-1.348;2023-08-01T03:18:21;18.40;99.90
4687;DHT22;2357;47.316;-1.348;2023-08-01T03:20:47;18.50;99.90
4687;DHT22;2357;47.316;-1.348;2023-08-01T03:23:12;18.50;99.90
4687;DHT22;2357;47.316;-1.348;2023-08-01T03:25:38;18.40;99.90
4687;DHT22;2357;47.316;-1.348;2023-08-01T03:28:04;18.50;99.90
4687;DHT22;2357;47.316;-1.348;2023-08-01T03:30:32;18.50;99.90
4687;DHT22;2357;47.316;-1.348;2023-08-01T03:32:57;18.50;99.90
4687;DHT22;2357;47.316;-1.348;2023-08-01T03:35:23;18.50;99.90
4687;DHT22;2357;47.316;-1.348;2023-08-01T03:37:49;18.50;99.90
4687;DHT22;2357;47.316;-1.348;2023-08-01T03:40:15;18.40;99.90
4687;DHT22;2357;47.316;-1.348;2023-08-01T03:42:41;18.40;99.90
4687;DHT22;2357;47.316;-1.348;2023-08-01T03:45:07;18.30;99.90
4687;DHT22;2357;47.316;-1.348;2023-08-01T03:47:33;18.20;99.90
4687;DHT22;2357;47.316;-1.348;2023-08-01T03:49:59;18.10;99.90
4687;DHT22;2357;47.316;-1.348;2023-08-01T03:52:24;18.10;99.90
4687;DHT22;2357;47.316;-1.348;2023-08-01T03:54:53;18.20;99.90
4687;DHT22;2357;47.316;-1.348;2023-08-01T03:57:19;18.20;99.90
4687;DHT22;2357;47.316;-1.348;2023-08-01T03:59:46;18.20;99.90
4687;DHT22;2357;47.316;-1.348;2023-08-01T04:02:12;18.20;99.90
4687;DHT22;2357;47.316;-1.348;2023-08-01T04:04:37;18.20;99.90
4687;DHT22;2357;47.316;-1.348;2023-08-01T04:07:03;18.00;99.90
4687;DHT22;2357;47.316;-1.348;2023-08-01T04:09:29;18.20;99.90
4687;DHT22;2357;47.316;-1.348;2023-08-01T04:11:55;18.20;99.90
4687;DHT22;2357;47.316;-1.348;2023-08-01T04:14:21;18.20;99.90
4687;DHT22;2357;47.316;-1.348;2023-08-01T04:16:47;18.30;99.90
4687;DHT22;2357;47.316;-1.348;2023-08-01T04:19:13;18.20;99.90
4687;DHT22;2357;47.316;-1.348;2023-08-01T04:21:39;18.10;99.90
4687;DHT22;2357;47.316;-1.348;2023-08-01T04:24:04;18.10;99.90
4687;DHT22;2357;47.316;-1.348;2023-08-01T04:26:30;18.00;99.90
4687;DHT22;2357;47.316;-1.348;2023-08-01T04:28:56;18.00;99.90
4687;DHT22;2357;47.316;-1.348;2023-08-01T04:31:21;17.90;99.90
4687;DHT22;2357;47.316;-1.348;2023-08-01T04:33:47;18.00;99.90
4687;DHT22;2357;47.316;-1.348;2023-08-01T04:36:12;17.90;99.90
4687;DHT22;2357;47.316;-1.348;2023-08-01T04:38:38;17.90;99.90
4687;DHT22;2357;47.316;-1.348;2023-08-01T04:41:03;17.90;99.90
4687;DHT22;2357;47.316;-1.348;2023-08-01T04:43:29;17.80;99.90
4687;DHT22;2357;47.316;-1.348;2023-08-01T04:45:55;17.80;99.90
4687;DHT22;2357;47.316;-1.348;2023-08-01T04:48:20;17.90;99.90
4687;DHT22;2357;47.316;-1.348;2023-08-01T04:50:46;17.90;99.90
4687;DHT22;2357;47.316;-1.348;2023-08-01T04:53:12;17.90;99.90
4687;DHT22;2357;47.316;-1.348;2023-08-01T04:55:38;17.80;99.90
4687;DHT22;2357;47.316;-1.348;2023-08-01T04:58:03;17.80;99.90
4687;DHT22;2357;47.316;-1.348;2023-08-01T05:00:29;17.70;99.90
4687;DHT22;2357;47.316;-1.348;2023-08-01T05:02:55;17.70;99.90
4687;DHT22;2357;47.316;-1.348;2023-08-01T05:05:20;17.60;99.90
4687;DHT22;2357;47.316;-1.348;2023-08-01T05:07:46;17.70;99.90
4687;DHT22;2357;47.316;-1.348;2023-08-01T05:10:12;17.70;99.90
4687;DHT22;2357;47.316;-1.348;2023-08-01T05:12:37;17.60;99.90
4687;DHT22;2357;47.316;-1.348;2023-08-01T05:15:03;17.70;99.90
4687;DHT22;2357;47.316;-1.348;2023-08-01T05:17:29;17.70;99.90
4687;DHT22;2357;47.316;-1.348;2023-08-01T05:19:55;17.60;99.90
4687;DHT22;2357;47.316;-1.348;2023-08-01T05:22:21;17.60;99.90
4687;DHT22;2357;47.316;-1.348;2023-08-01T05:24:46;17.50;99.90
4687;DHT22;2357;47.316;-1.348;2023-08-01T05:27:12;17.50;99.90
4687;DHT22;2357;47.316;-1.348;2023-08-01T05:29:37;17.50;99.90
4687;DHT22;2357;47.316;-1.348;2023-08-01T05:32:03;17.40;99.90
4687;DHT22;2357;47.316;-1.348;2023-08-01T05:34:29;17.50;99.90
4687;DHT22;2357;47.316;-1.348;2023-08-01T05:36:55;17.50;99.90
4687;DHT22;2357;47.316;-1.348;2023-08-01T05:39:20;17.30;99.90
4687;DHT22;2357;47.316;-1.348;2023-08-01T05:41:46;17.30;99.90
4687;DHT22;2357;47.316;-1.348;2023-08-01T05:44:11;17.40;99.90
4687;DHT22;2357;47.316;-1.348;2023-08-01T05:46:37;17.40;99.90
4687;DHT22;2357;47.316;-1.348;2023-08-01T05:49:03;17.40;99.90
4687;DHT22;2357;47.316;-1.348;2023-08-01T05:51:28;17.40;99.90
4687;DHT22;2357;47.316;-1.348;2023-08-01T05:53:54;17.50;99.90
4687;DHT22;2357;47.316;-1.348;2023-08-01T05:56:20;17.60;99.90
4687;DHT22;2357;47.316;-1.348;2023-08-01T05:58:45;17.60;99.90
4687;DHT22;2357;47.316;-1.348;2023-08-01T06:01:11;17.60;99.90
4687;DHT22;2357;47.316;-1.348;2023-08-01T06:03:37;17.70;99.90
4687;DHT22;2357;47.316;-1.348;2023-08-01T06:06:03;17.70;99.90
4687;DHT22;2357;47.316;-1.348;2023-08-01T06:08:30;17.70;99.90
4687;DHT22;2357;47.316;-1.348;2023-08-01T06:10:56;17.70;99.90
4687;DHT22;2357;47.316;-1.348;2023-08-01T06:13:21;17.70;99.90
4687;DHT22;2357;47.316;-1.348;2023-08-01T06:15:47;17.70;99.90
4687;DHT22;2357;47.316;-1.348;2023-08-01T06:18:12;17.70;99.90
4687;DHT22;2357;47.316;-1.348;2023-08-01T06:20:38;17.70;99.90
4687;DHT22;2357;47.316;-1.348;2023-08-01T06:23:04;17.80;99.90
4687;DHT22;2357;47.316;-1.348;2023-08-01T06:25:30;17.80;99.90
4687;DHT22;2357;47.316;-1.348;2023-08-01T06:27:56;17.80;99.90
4687;DHT22;2357;47.316;-1.348;2023-08-01T06:30:21;17.90;99.90
4687;DHT22;2357;47.316;-1.348;2023-08-01T06:32:47;17.90;99.90
4687;DHT22;2357;47.316;-1.348;2023-08-01T06:35:12;17.80;99.90
4687;DHT22;2357;47.316;-1.348;2023-08-01T06:37:38;17.80;99.90
4687;DHT22;2357;47.316;-1.348;2023-08-01T06:40:04;17.80;99.90
4687;DHT22;2357;47.316;-1.348;2023-08-01T06:42:30;17.80;99.90
4687;DHT22;2357;47.316;-1.348;2023-08-01T06:44:56;17.80;99.90
4687;DHT22;2357;47.316;-1.348;2023-08-01T06:47:22;17.80;99.90
4687;DHT22;2357;47.316;-1.348;2023-08-01T06:49:47;17.80;99.90
4687;DHT22;2357;47.316;-1.348;2023-08-01T06:52:13;17.70;99.90
4687;DHT22;2357;47.316;-1.348;2023-08-01T06:54:38;17.80;99.90
4687;DHT22;2357;47.316;-1.348;2023-08-01T06:57:06;17.80;99.90
4687;DHT22;2357;47.316;-1.348;2023-08-01T06:59:32;17.90;99.90
4687;DHT22;2357;47.316;-1.348;2023-08-01T07:01:57;17.90;99.90
4687;DHT22;2357;47.316;-1.348;2023-08-01T07:04:23;17.90;99.90
4687;DHT22;2357;47.316;-1.348;2023-08-01T07:06:49;17.90;99.90
4687;DHT22;2357;47.316;-1.348;2023-08-01T07:09:14;18.00;99.90
4687;DHT22;2357;47.316;-1.348;2023-08-01T07:11:40;18.10;99.90
4687;DHT22;2357;47.316;-1.348;2023-08-01T07:14:06;18.10;99.90
4687;DHT22;2357;47.316;-1.348;2023-08-01T07:16:31;18.20;99.90
4687;DHT22;2357;47.316;-1.348;2023-08-01T07:18:59;18.30;99.90
4687;DHT22;2357;47.316;-1.348;2023-08-01T07:21:25;18.20;99.90
4687;DHT22;2357;47.316;-1.348;2023-08-01T07:23:51;18.20;99.90
4687;DHT22;2357;47.316;-1.348;2023-08-01T07:26:16;18.20;99.90
4687;DHT22;2357;47.316;-1.348;2023-08-01T07:28:42;18.40;99.90
4687;DHT22;2357;47.316;-1.348;2023-08-01T07:31:08;18.50;99.90
4687;DHT22;2357;47.316;-1.348;2023-08-01T07:33:34;18.50;99.90
4687;DHT22;2357;47.316;-1.348;2023-08-01T07:36:00;18.50;99.90
4687;DHT22;2357;47.316;-1.348;2023-08-01T07:38:25;18.60;99.90
4687;DHT22;2357;47.316;-1.348;2023-08-01T07:40:57;18.50;99.90
4687;DHT22;2357;47.316;-1.348;2023-08-01T07:43:23;18.60;99.90
4687;DHT22;2357;47.316;-1.348;2023-08-01T07:45:49;18.80;99.90
4687;DHT22;2357;47.316;-1.348;2023-08-01T07:48:17;19.00;99.90
4687;DHT22;2357;47.316;-1.348;2023-08-01T07:50:43;19.00;99.90
4687;DHT22;2357;47.316;-1.348;2023-08-01T07:53:08;19.10;99.90
4687;DHT22;2357;47.316;-1.348;2023-08-01T07:55:34;19.10;99.90
4687;DHT22;2357;47.316;-1.348;2023-08-01T07:58:00;19.10;99.90
4687;DHT22;2357;47.316;-1.348;2023-08-01T08:00:26;19.10;99.90
4687;DHT22;2357;47.316;-1.348;2023-08-01T08:02:53;19.10;99.90
4687;DHT22;2357;47.316;-1.348;2023-08-01T08:05:19;19.10;99.90
4687;DHT22;2357;47.316;-1.348;2023-08-01T08:07:44;19.10;99.90
4687;DHT22;2357;47.316;-1.348;2023-08-01T08:10:10;19.00;99.90
4687;DHT22;2357;47.316;-1.348;2023-08-01T08:12:35;19.00;99.90
4687;DHT22;2357;47.316;-1.348;2023-08-01T08:15:01;19.10;99.90
4687;DHT22;2357;47.316;-1.348;2023-08-01T08:17:27;19.00;99.90
4687;DHT22;2357;47.316;-1.348;2023-08-01T08:19:53;19.10;99.90
4687;DHT22;2357;47.316;-1.348;2023-08-01T08:22:19;19.30;99.90
4687;DHT22;2357;47.316;-1.348;2023-08-01T08:24:44;19.50;99.90
4687;DHT22;2357;47.316;-1.348;2023-08-01T08:27:10;19.60;99.90
4687;DHT22;2357;47.316;-1.348;2023-08-01T08:29:35;19.70;99.90
4687;DHT22;2357;47.316;-1.348;2023-08-01T08:32:01;19.60;99.90
4687;DHT22;2357;47.316;-1.348;2023-08-01T08:34:27;19.40;99.90
4687;DHT22;2357;47.316;-1.348;2023-08-01T08:36:52;19.40;99.90
4687;DHT22;2357;47.316;-1.348;2023-08-01T08:39:18;19.70;99.90
4687;DHT22;2357;47.316;-1.348;2023-08-01T08:41:49;19.80;99.90
4687;DHT22;2357;47.316;-1.348;2023-08-01T08:44:15;19.60;99.90
4687;DHT22;2357;47.316;-1.348;2023-08-01T08:46:51;19.60;99.90
4687;DHT22;2357;47.316;-1.348;2023-08-01T08:49:18;19.40;99.90
4687;DHT22;2357;47.316;-1.348;2023-08-01T08:51:45;19.30;99.90
4687;DHT22;2357;47.316;-1.348;2023-08-01T08:54:13;19.40;99.90
4687;DHT22;2357;47.316;-1.348;2023-08-01T08:56:39;19.50;99.90
4687;DHT22;2357;47.316;-1.348;2023-08-01T08:59:09;19.30;99.90
4687;DHT22;2357;47.316;-1.348;2023-08-01T09:01:38;19.50;99.90
4687;DHT22;2357;47.316;-1.348;2023-08-01T09:04:05;19.70;99.90
4687;DHT22;2357;47.316;-1.348;2023-08-01T09:06:51;20.00;99.90
4687;DHT22;2357;47.316;-1.348;2023-08-01T09:09:20;20.20;99.90
4687;DHT22;2357;47.316;-1.348;2023-08-01T09:11:51;20.50;99.90
4687;DHT22;2357;47.316;-1.348;2023-08-01T09:14:19;20.70;99.90
4687;DHT22;2357;47.316;-1.348;2023-08-01T09:16:46;20.70;99.90
4687;DHT22;2357;47.316;-1.348;2023-08-01T09:19:17;20.80;99.90
4687;DHT22;2357;47.316;-1.348;2023-08-01T09:21:42;20.80;99.90
4687;DHT22;2357;47.316;-1.348;2023-08-01T09:24:13;20.70;99.90
4687;DHT22;2357;47.316;-1.348;2023-08-01T09:26:39;20.60;99.90
4687;DHT22;2357;47.316;-1.348;2023-08-01T09:29:05;20.60;99.90
4687;DHT22;2357;47.316;-1.348;2023-08-01T09:31:33;20.40;99.90
4687;DHT22;2357;47.316;-1.348;2023-08-01T09:34:01;20.20;99.90
4687;DHT22;2357;47.316;-1.348;2023-08-01T09:36:29;20.10;99.90
4687;DHT22;2357;47.316;-1.348;2023-08-01T09:39:03;19.90;99.90
4687;DHT22;2357;47.316;-1.348;2023-08-01T09:41:30;19.90;99.90
4687;DHT22;2357;47.316;-1.348;2023-08-01T09:43:56;19.70;99.90
4687;DHT22;2357;47.316;-1.348;2023-08-01T09:46:22;19.50;99.90
4687;DHT22;2357;47.316;-1.348;2023-08-01T09:48:48;19.50;99.90
4687;DHT22;2357;47.316;-1.348;2023-08-01T09:51:15;19.50;99.90
4687;DHT22;2357;47.316;-1.348;2023-08-01T09:53:55;19.70;99.90
4687;DHT22;2357;47.316;-1.348;2023-08-01T09:56:22;19.70;99.90
4687;DHT22;2357;47.316;-1.348;2023-08-01T09:58:49;19.70;99.90
4687;DHT22;2357;47.316;-1.348;2023-08-01T10:01:17;19.80;99.90
4687;DHT22;2357;47.316;-1.348;2023-08-01T10:03:47;20.10;99.90
4687;DHT22;2357;47.316;-1.348;2023-08-01T10:06:20;20.20;99.90
4687;DHT22;2357;47.316;-1.348;2023-08-01T10:08:47;20.20;99.90
4687;DHT22;2357;47.316;-1.348;2023-08-01T10:11:18;20.20;99.90
4687;DHT22;2357;47.316;-1.348;2023-08-01T10:13:44;20.00;99.90
4687;DHT22;2357;47.316;-1.348;2023-08-01T10:16:10;20.00;99.90
4687;DHT22;2357;47.316;-1.348;2023-08-01T10:18:37;20.00;99.90
4687;DHT22;2357;47.316;-1.348;2023-08-01T10:21:05;19.80;99.90
4687;DHT22;2357;47.316;-1.348;2023-08-01T10:23:33;19.60;99.90
4687;DHT22;2357;47.316;-1.348;2023-08-01T10:26:00;19.70;99.90
4687;DHT22;2357;47.316;-1.348;2023-08-01T10:28:33;19.60;99.90
4687;DHT22;2357;47.316;-1.348;2023-08-01T10:31:15;19.60;99.90
4687;DHT22;2357;47.316;-1.348;2023-08-01T10:33:46;19.60;99.90
4687;DHT22;2357;47.316;-1.348;2023-08-01T10:36:21;19.50;99.90
4687;DHT22;2357;47.316;-1.348;2023-08-01T10:38:58;19.50;99.90
4687;DHT22;2357;47.316;-1.348;2023-08-01T10:41:35;19.40;99.90
4687;DHT22;2357;47.316;-1.348;2023-08-01T10:44:14;19.60;99.90
4687;DHT22;2357;47.316;-1.348;2023-08-01T10:49:39;20.00;99.90
4687;DHT22;2357;47.316;-1.348;2023-08-01T10:52:25;20.10;99.90
4687;DHT22;2357;47.316;-1.348;2023-08-01T10:57:28;20.70;99.90
4687;DHT22;2357;47.316;-1.348;2023-08-01T10:59:55;20.80;99.90
4687;DHT22;2357;47.316;-1.348;2023-08-01T11:02:26;20.90;99.90
4687;DHT22;2357;47.316;-1.348;2023-08-01T11:04:59;21.00;99.90
4687;DHT22;2357;47.316;-1.348;2023-08-01T11:07:25;21.00;99.90
4687;DHT22;2357;47.316;-1.348;2023-08-01T11:12:42;21.40;99.90
4687;DHT22;2357;47.316;-1.348;2023-08-01T11:15:10;21.40;99.90
4687;DHT22;2357;47.316;-1.348;2023-08-01T11:17:40;21.20;99.90
4687;DHT22;2357;47.316;-1.348;2023-08-01T11:20:12;21.10;99.90
4687;DHT22;2357;47.316;-1.348;2023-08-01T11:22:48;21.00;99.90
4687;DHT22;2357;47.316;-1.348;2023-08-01T11:25:14;21.00;99.90
4687;DHT22;2357;47.316;-1.348;2023-08-01T11:27:40;21.10;99.90
4687;DHT22;2357;47.316;-1.348;2023-08-01T11:30:06;21.20;99.90
4687;DHT22;2357;47.316;-1.348;2023-08-01T11:32:36;21.20;99.90
4687;DHT22;2357;47.316;-1.348;2023-08-01T11:35:02;21.00;99.90
4687;DHT22;2357;47.316;-1.348;2023-08-01T11:37:29;20.90;99.90
4687;DHT22;2357;47.316;-1.348;2023-08-01T11:39:55;20.80;99.90
4687;DHT22;2357;47.316;-1.348;2023-08-01T11:42:22;20.80;99.90
4687;DHT22;2357;47.316;-1.348;2023-08-01T11:44:47;20.80;99.90
4687;DHT22;2357;47.316;-1.348;2023-08-01T11:47:17;21.00;99.90
4687;DHT22;2357;47.316;-1.348;2023-08-01T11:49:48;21.10;99.90
4687;DHT22;2357;47.316;-1.348;2023-08-01T11:52:27;20.80;99.90
4687;DHT22;2357;47.316;-1.348;2023-08-01T11:54:53;20.80;99.90
4687;DHT22;2357;47.316;-1.348;2023-08-01T11:57:20;21.00;99.90
4687;DHT22;2357;47.316;-1.348;2023-08-01T11:59:55;21.20;99.90
4687;DHT22;2357;47.316;-1.348;2023-08-01T12:04:48;21.00;99.90
4687;DHT22;2357;47.316;-1.348;2023-08-01T12:07:14;21.10;99.90
4687;DHT22;2357;47.316;-1.348;2023-08-01T12:09:40;21.00;99.90
4687;DHT22;2357;47.316;-1.348;2023-08-01T12:12:06;20.90;99.90
4687;DHT22;2357;47.316;-1.348;2023-08-01T12:14:32;20.40;99.90
4687;DHT22;2357;47.316;-1.348;2023-08-01T12:16:57;20.60;99.90
4687;DHT22;2357;47.316;-1.348;2023-08-01T12:19:23;20.60;99.90
4687;DHT22;2357;47.316;-1.348;2023-08-01T12:21:49;20.60;99.90
4687;DHT22;2357;47.316;-1.348;2023-08-01T12:24:15;20.60;99.90
4687;DHT22;2357;47.316;-1.348;2023-08-01T12:26:40;20.50;99.90
4687;DHT22;2357;47.316;-1.348;2023-08-01T12:29:06;20.40;99.90
4687;DHT22;2357;47.316;-1.348;2023-08-01T12:31:33;20.40;99.90
4687;DHT22;2357;47.316;-1.348;2023-08-01T12:33:58;20.50;99.90
4687;DHT22;2357;47.316;-1.348;2023-08-01T12:36:24;20.60;99.90
4687;DHT22;2357;47.316;-1.348;2023-08-01T12:38:50;20.60;99.90
4687;DHT22;2357;47.316;-1.348;2023-08-01T12:41:15;20.50;99.90
4687;DHT22;2357;47.316;-1.348;2023-08-01T12:43:41;20.10;99.90
4687;DHT22;2357;47.316;-1.348;2023-08-01T12:46:07;20.40;99.90
4687;DHT22;2357;47.316;-1.348;2023-08-01T12:48:32;20.60;99.90
4687;DHT22;2357;47.316;-1.348;2023-08-01T12:50:58;20.70;99.90
4687;DHT22;2357;47.316;-1.348;2023-08-01T12:53:23;20.70;99.90
4687;DHT22;2357;47.316;-1.348;2023-08-01T12:55:50;20.80;99.90
4687;DHT22;2357;47.316;-1.348;2023-08-01T12:58:16;20.80;99.90
4687;DHT22;2357;47.316;-1.348;2023-08-01T13:00:43;21.00;99.90
4687;DHT22;2357;47.316;-1.348;2023-08-01T13:03:10;20.80;99.90
4687;DHT22;2357;47.316;-1.348;2023-08-01T13:05:37;20.80;99.90
4687;DHT22;2357;47.316;-1.348;2023-08-01T13:08:03;20.50;99.90
4687;DHT22;2357;47.316;-1.348;2023-08-01T13:10:30;20.50;99.90
4687;DHT22;2357;47.316;-1.348;2023-08-01T13:12:57;20.60;99.90
4687;DHT22;2357;47.316;-1.348;2023-08-01T13:15:23;20.60;99.90
4687;DHT22;2357;47.316;-1.348;2023-08-01T13:17:49;20.50;99.90
4687;DHT22;2357;47.316;-1.348;2023-08-01T13:20:15;20.40;99.90
4687;DHT22;2357;47.316;-1.348;2023-08-01T13:22:42;20.40;99.90
4687;DHT22;2357;47.316;-1.348;2023-08-01T13:25:08;20.40;99.90
4687;DHT22;2357;47.316;-1.348;2023-08-01T13:27:35;20.40;99.90
4687;DHT22;2357;47.316;-1.348;2023-08-01T13:30:02;20.50;99.90
4687;DHT22;2357;47.316;-1.348;2023-08-01T13:32:27;20.40;99.90
4687;DHT22;2357;47.316;-1.348;2023-08-01T13:34:53;20.30;99.90
4687;DHT22;2357;47.316;-1.348;2023-08-01T13:37:18;20.30;99.90
4687;DHT22;2357;47.316;-1.348;2023-08-01T13:39:44;20.30;99.90
4687;DHT22;2357;47.316;-1.348;2023-08-01T13:42:11;20.40;99.90
4687;DHT22;2357;47.316;-1.348;2023-08-01T13:44:37;20.40;99.90
4687;DHT22;2357;47.316;-1.348;2023-08-01T13:47:03;20.60;99.90
4687;DHT22;2357;47.316;-1.348;2023-08-01T13:49:29;20.60;99.90
4687;DHT22;2357;47.316;-1.348;2023-08-01T13:51:55;20.70;99.90
4687;DHT22;2357;47.316;-1.348;2023-08-01T13:54:21;20.70;99.90
4687;DHT22;2357;47.316;-1.348;2023-08-01T13:56:46;20.70;99.90
4687;DHT22;2357;47.316;-1.348;2023-08-01T13:59:12;20.80;99.90
4687;DHT22;2357;47.316;-1.348;2023-08-01T14:01:38;20.90;99.90
4687;DHT22;2357;47.316;-1.348;2023-08-01T14:04:04;20.80;99.90
4687;DHT22;2357;47.316;-1.348;2023-08-01T14:06:30;20.70;99.90
4687;DHT22;2357;47.316;-1.348;2023-08-01T14:08:55;20.60;99.90
4687;DHT22;2357;47.316;-1.348;2023-08-01T14:11:22;20.50;99.90
4687;DHT22;2357;47.316;-1.348;2023-08-01T14:13:49;20.50;99.90
4687;DHT22;2357;47.316;-1.348;2023-08-01T14:16:14;20.50;99.90
4687;DHT22;2357;47.316;-1.348;2023-08-01T14:18:42;20.40;99.90
4687;DHT22;2357;47.316;-1.348;2023-08-01T14:21:08;20.50;99.90
4687;DHT22;2357;47.316;-1.348;2023-08-01T14:23:34;20.50;99.90
4687;DHT22;2357;47.316;-1.348;2023-08-01T14:25:59;20.40;99.90
4687;DHT22;2357;47.316;-1.348;2023-08-01T14:28:25;20.40;99.90
4687;DHT22;2357;47.316;-1.348;2023-08-01T14:30:50;20.30;99.90
4687;DHT22;2357;47.316;-1.348;2023-08-01T14:33:16;20.30;99.90
4687;DHT22;2357;47.316;-1.348;2023-08-01T14:35:42;20.20;99.90
4687;DHT22;2357;47.316;-1.348;2023-08-01T14:38:08;20.30;99.90
4687;DHT22;2357;47.316;-1.348;2023-08-01T14:40:34;20.20;99.90
4687;DHT22;2357;47.316;-1.348;2023-08-01T14:43:01;20.10;99.90
4687;DHT22;2357;47.316;-1.348;2023-08-01T14:45:27;19.90;99.90
4687;DHT22;2357;47.316;-1.348;2023-08-01T14:47:52;19.90;99.90
4687;DHT22;2357;47.316;-1.348;2023-08-01T14:50:18;20.00;99.90
4687;DHT22;2357;47.316;-1.348;2023-08-01T14:52:44;20.00;99.90
4687;DHT22;2357;47.316;-1.348;2023-08-01T14:55:10;20.00;99.90
4687;DHT22;2357;47.316;-1.348;2023-08-01T14:57:35;19.90;99.90
4687;DHT22;2357;47.316;-1.348;2023-08-01T15:00:01;19.90;99.90
4687;DHT22;2357;47.316;-1.348;2023-08-01T15:02:27;19.80;99.90
4687;DHT22;2357;47.316;-1.348;2023-08-01T15:04:56;19.70;99.90
4687;DHT22;2357;47.316;-1.348;2023-08-01T15:07:23;19.60;99.90
4687;DHT22;2357;47.316;-1.348;2023-08-01T15:09:50;19.60;99.90
4687;DHT22;2357;47.316;-1.348;2023-08-01T15:12:16;19.60;99.90
4687;DHT22;2357;47.316;-1.348;2023-08-01T15:14:42;19.70;99.90
4687;DHT22;2357;47.316;-1.348;2023-08-01T15:17:07;19.60;99.90
4687;DHT22;2357;47.316;-1.348;2023-08-01T15:19:35;19.80;99.90
4687;DHT22;2357;47.316;-1.348;2023-08-01T15:22:01;19.80;99.90
4687;DHT22;2357;47.316;-1.348;2023-08-01T15:24:26;19.80;99.90
4687;DHT22;2357;47.316;-1.348;2023-08-01T15:26:52;19.90;99.90
4687;DHT22;2357;47.316;-1.348;2023-08-01T15:29:18;19.70;99.90
4687;DHT22;2357;47.316;-1.348;2023-08-01T15:31:43;19.70;99.90
4687;DHT22;2357;47.316;-1.348;2023-08-01T15:34:09;19.70;99.90
4687;DHT22;2357;47.316;-1.348;2023-08-01T15:36:35;19.70;99.90
4687;DHT22;2357;47.316;-1.348;2023-08-01T15:39:00;19.60;99.90
4687;DHT22;2357;47.316;-1.348;2023-08-01T15:41:27;19.60;99.90
4687;DHT22;2357;47.316;-1.348;2023-08-01T15:43:53;19.50;99.90
4687;DHT22;2357;47.316;-1.348;2023-08-01T15:46:19;19.40;99.90
4687;DHT22;2357;47.316;-1.348;2023-08-01T15:48:44;19.40;99.90
4687;DHT22;2357;47.316;-1.348;2023-08-01T15:51:10;19.40;99.90
4687;DHT22;2357;47.316;-1.348;2023-08-01T15:53:39;19.40;99.90
4687;DHT22;2357;47.316;-1.348;2023-08-01T15:56:07;19.40;99.90
4687;DHT22;2357;47.316;-1.348;2023-08-01T15:58:32;19.30;99.90
4687;DHT22;2357;47.316;-1.348;2023-08-01T16:00:59;19.20;99.90
4687;DHT22;2357;47.316;-1.348;2023-08-01T16:03:25;19.10;99.90
4687;DHT22;2357;47.316;-1.348;2023-08-01T16:05:52;19.10;99.90
4687;DHT22;2357;47.316;-1.348;2023-08-01T16:08:18;19.10;99.90
4687;DHT22;2357;47.316;-1.348;2023-08-01T16:10:44;19.00;99.90
4687;DHT22;2357;47.316;-1.348;2023-08-01T16:13:11;19.00;99.90
4687;DHT22;2357;47.316;-1.348;2023-08-01T16:15:37;19.00;99.90
4687;DHT22;2357;47.316;-1.348;2023-08-01T16:18:03;18.90;99.90
4687;DHT22;2357;47.316;-1.348;2023-08-01T16:20:29;18.90;99.90
4687;DHT22;2357;47.316;-1.348;2023-08-01T16:22:55;18.80;99.90